createdAt,value
2022-11-02T00:04:27.330Z,15.50
2022-11-02T00:09:29.657Z,15.50
2022-11-02T00:14:31.873Z,15.40
2022-11-02T00:19:34.796Z,15.40
2022-11-02T00:24:37.065Z,15.40
2022-11-02T00:29:39.318Z,15.40
2022-11-02T00:34:41.561Z,15.40
2022-11-02T00:39:44.094Z,15.40
2022-11-02T00:44:46.355Z,15.40
2022-11-02T00:49:49.006Z,15.30
2022-11-02T00:54:52.029Z,15.40
2022-11-02T00:59:54.592Z,15.30
2022-11-02T01:04:56.856Z,15.30
2022-11-02T01:09:59.141Z,15.30
2022-11-02T01:15:01.389Z,15.30
2022-11-02T01:20:05.508Z,15.30
2022-11-02T01:25:08.246Z,15.30
2022-11-02T01:30:11.165Z,15.20
2022-11-02T01:35:13.512Z,15.20
2022-11-02T01:40:16.298Z,15.20
2022-11-02T01:45:18.553Z,15.20
2022-11-02T01:50:25.851Z,15.20
2022-11-02T01:55:32.953Z,15.20
2022-11-02T02:00:35.246Z,15.20
2022-11-02T02:05:43.816Z,15.10
2022-11-02T02:10:47.318Z,15.10
2022-11-02T02:27:14.578Z,15.00
2022-11-02T02:32:31.466Z,15.00
2022-11-02T02:37:58.336Z,15.00
2022-11-02T02:43:08.925Z,15.00
2022-11-02T02:48:21.605Z,14.90
2022-11-02T02:53:31.385Z,14.80
2022-11-02T02:58:42.646Z,14.80
2022-11-02T03:03:45.287Z,14.80
2022-11-02T03:09:02.087Z,14.80
2022-11-02T03:35:21.274Z,14.70
2022-11-02T03:40:33.282Z,14.60
2022-11-02T03:45:40.352Z,14.50
2022-11-02T03:50:49.089Z,14.40
2022-11-02T03:55:57.637Z,14.40
2022-11-02T04:01:04.487Z,14.40
2022-11-02T04:06:08.259Z,14.30
2022-11-02T04:11:31.072Z,14.30
2022-11-02T04:16:39.093Z,14.30
2022-11-02T04:22:06.392Z,14.20
2022-11-02T04:27:14.416Z,14.30
2022-11-02T04:32:39.268Z,14.30
2022-11-02T04:38:05.679Z,14.30
2022-11-02T04:43:12.217Z,14.40
2022-11-02T04:48:14.697Z,14.40
2022-11-02T04:53:17.057Z,14.40
2022-11-02T04:58:20.395Z,14.50
2022-11-02T05:03:23.302Z,14.50
2022-11-02T05:08:25.932Z,14.40
2022-11-02T05:13:28.892Z,14.50
2022-11-02T05:18:34.246Z,14.50
2022-11-02T05:23:37.088Z,14.50
2022-11-02T06:19:12.122Z,15.40
2022-11-02T06:24:15.330Z,15.60
2022-11-02T06:29:17.660Z,15.80
2022-11-02T06:34:19.904Z,16.00
2022-11-02T06:39:22.297Z,16.30
2022-11-02T06:44:24.538Z,16.60
2022-11-02T06:49:26.748Z,16.80
2022-11-02T06:54:28.949Z,17.30
2022-11-02T06:59:31.190Z,18.00
2022-11-02T07:04:33.472Z,18.90
2022-11-02T07:09:35.772Z,20.40
2022-11-02T07:14:38.027Z,22.40
2022-11-02T07:19:40.321Z,24.10
2022-11-02T07:24:42.624Z,25.30
2022-11-02T07:29:44.738Z,26.30
2022-11-02T07:34:47.318Z,27.10
2022-11-02T07:39:51.224Z,27.80
2022-11-02T07:44:57.363Z,27.50
2022-11-02T07:49:59.733Z,27.60
2022-11-02T07:55:02.158Z,27.80
2022-11-02T08:00:05.045Z,27.30
2022-11-02T08:05:25.243Z,27.80
2022-11-02T08:10:29.056Z,28.70
2022-11-02T08:15:31.511Z,29.40
2022-11-02T08:20:36.209Z,29.80
2022-11-02T08:25:40.654Z,30.20
2022-11-02T08:30:43.152Z,30.20
2022-11-02T08:35:46.921Z,29.50
2022-11-02T08:40:49.806Z,29.10
2022-11-02T08:46:13.653Z,30.10
2022-11-02T08:51:14.411Z,29.50
2022-11-02T08:56:16.638Z,28.70
2022-11-02T09:01:18.937Z,27.40
2022-11-02T09:06:21.264Z,26.40
2022-11-02T09:11:23.636Z,25.50
2022-11-02T09:16:25.890Z,24.80
2022-11-02T09:21:28.355Z,24.30
2022-11-02T09:26:30.570Z,23.90
2022-11-02T09:31:32.845Z,23.30
2022-11-02T09:36:35.102Z,22.90
2022-11-02T09:41:50.626Z,22.90
2022-11-02T09:47:24.316Z,22.90
2022-11-02T09:52:26.525Z,22.90
2022-11-02T09:57:31.944Z,22.80
2022-11-02T10:02:57.481Z,22.70
2022-11-02T10:13:56.658Z,22.70
2022-11-02T10:18:59.604Z,22.70
2022-11-02T10:29:49.534Z,22.80
2022-11-02T10:34:59.117Z,22.90
2022-11-02T10:40:52.964Z,22.70
2022-11-02T10:51:26.168Z,22.80
2022-11-02T10:56:33.359Z,23.10
2022-11-02T11:01:35.741Z,23.40
2022-11-02T11:06:41.034Z,23.50
2022-11-02T11:22:44.149Z,23.70
2022-11-02T11:27:49.815Z,24.10
2022-11-02T11:32:52.389Z,24.30
2022-11-02T11:37:57.433Z,24.20
2022-11-02T11:43:02.302Z,24.30
2022-11-02T11:48:34.436Z,24.30
2022-11-02T11:53:38.804Z,24.40
2022-11-02T11:58:51.398Z,24.40
2022-11-02T12:04:00.481Z,24.70
2022-11-02T12:09:42.450Z,24.90
2022-11-02T12:26:03.251Z,25.50
2022-11-02T12:57:22.226Z,25.60
2022-11-02T13:02:31.864Z,25.30
2022-11-02T13:12:57.130Z,25.10
2022-11-02T13:18:05.758Z,25.10
2022-11-02T13:23:22.561Z,25.20
2022-11-02T13:28:48.646Z,25.20
2022-11-02T13:33:54.688Z,25.40
2022-11-02T13:54:51.794Z,24.90
2022-11-02T13:59:54.385Z,24.10
2022-11-02T14:04:56.841Z,23.90
2022-11-02T14:10:07.396Z,23.70
2022-11-02T14:20:46.584Z,23.70
2022-11-02T14:25:50.651Z,23.50
2022-11-02T14:42:18.435Z,23.20
2022-11-02T14:47:27.074Z,22.90
2022-11-02T14:52:33.161Z,22.90
2022-11-02T14:57:38.856Z,22.80
2022-11-02T15:02:43.262Z,22.70
2022-11-02T15:24:02.189Z,22.20
2022-11-02T15:29:07.050Z,21.90
2022-11-02T15:34:17.652Z,21.80
2022-11-02T15:39:20.033Z,21.70
2022-11-02T16:05:14.968Z,21.60
2022-11-02T16:15:33.010Z,20.90
2022-11-02T16:20:37.343Z,20.80
2022-11-02T16:36:24.503Z,20.60
2022-11-02T16:41:29.362Z,20.50
2022-11-02T16:46:41.495Z,20.40
2022-11-02T16:51:54.556Z,20.30
2022-11-02T16:57:05.986Z,20.20
2022-11-02T17:02:13.657Z,20.20
2022-11-02T17:12:33.879Z,20.20
2022-11-02T17:17:39.610Z,20.00
2022-11-02T17:23:02.963Z,19.80
2022-11-02T17:28:44.997Z,19.50
2022-11-02T17:33:48.424Z,19.50
2022-11-02T17:38:50.715Z,19.50
2022-11-02T17:43:52.984Z,19.60
2022-11-02T17:48:55.393Z,19.40
2022-11-02T17:53:57.676Z,19.50
2022-11-02T17:58:59.997Z,19.50
2022-11-02T18:04:02.254Z,19.50
2022-11-02T18:09:11.964Z,19.40
2022-11-02T18:14:16.914Z,19.40
2022-11-02T18:19:19.635Z,19.30
2022-11-02T18:24:21.861Z,19.30
2022-11-02T18:29:24.181Z,19.20
2022-11-02T18:34:26.391Z,19.20
2022-11-02T18:39:28.598Z,19.20
2022-11-02T18:44:30.935Z,19.10
2022-11-02T18:49:33.165Z,19.00
2022-11-02T18:54:35.446Z,19.00
2022-11-02T18:59:38.095Z,19.00
2022-11-02T19:04:40.437Z,18.90
2022-11-02T19:09:42.814Z,18.80
2022-11-02T19:14:49.530Z,18.80
2022-11-02T19:19:52.306Z,18.80
2022-11-02T19:24:54.542Z,18.80
2022-11-02T19:29:56.821Z,18.80
2022-11-02T19:34:59.122Z,18.80
2022-11-02T19:40:01.361Z,18.80
2022-11-02T19:45:03.780Z,18.70
2022-11-02T19:50:06.374Z,18.70
2022-11-02T19:55:09.117Z,18.70
2022-11-02T20:00:12.355Z,18.50
2022-11-02T20:05:14.955Z,18.60
2022-11-02T20:10:17.305Z,18.60
2022-11-02T20:15:19.656Z,18.60
2022-11-02T20:20:21.870Z,18.50
2022-11-02T20:25:25.700Z,18.50
2022-11-02T20:30:27.932Z,18.50
2022-11-02T20:35:30.213Z,18.40
2022-11-02T20:40:33.824Z,18.40
2022-11-02T20:45:38.607Z,18.40
2022-11-02T20:50:41.169Z,18.30
2022-11-02T20:55:43.376Z,18.40
2022-11-02T21:00:47.805Z,18.40
2022-11-02T21:05:50.499Z,18.30
2022-11-02T21:10:57.679Z,18.30
2022-11-02T21:16:03.963Z,18.30
2022-11-02T21:21:09.339Z,18.20
2022-11-02T21:26:13.187Z,18.20
2022-11-02T21:31:19.434Z,18.20
2022-11-02T21:36:21.652Z,18.20
2022-11-02T21:41:26.708Z,18.20
2022-11-02T21:46:29.021Z,18.10
2022-11-02T21:51:31.338Z,18.10
2022-11-02T21:56:35.941Z,18.10
2022-11-02T22:01:46.867Z,18.00
2022-11-02T22:06:50.325Z,18.00
2022-11-02T22:12:12.743Z,17.90
2022-11-02T22:17:21.794Z,17.80
2022-11-02T22:22:37.269Z,17.60
2022-11-02T22:27:39.529Z,17.70
2022-11-02T22:32:41.769Z,17.50
2022-11-02T22:38:03.870Z,17.30
2022-11-02T22:43:06.476Z,17.40
2022-11-02T22:48:08.898Z,17.60
2022-11-02T22:53:11.122Z,17.50
2022-11-02T22:58:13.391Z,17.60
2022-11-02T23:03:15.605Z,17.70
2022-11-02T23:08:19.038Z,17.80
2022-11-02T23:13:21.525Z,17.80
2022-11-02T23:18:43.865Z,17.70
2022-11-02T23:24:05.974Z,17.70
2022-11-02T23:29:28.092Z,17.70
2022-11-02T23:34:30.374Z,17.70
2022-11-02T23:39:48.233Z,17.60
2022-11-02T23:44:50.771Z,17.50
2022-11-02T23:49:52.966Z,17.50
2022-11-02T23:55:15.132Z,17.40
